createdAt,value
2022-11-22T00:01:50.845Z,3.52
2022-11-22T00:04:19.660Z,3.52
2022-11-22T00:06:48.317Z,3.47
2022-11-22T00:09:16.911Z,3.42
2022-11-22T00:11:45.909Z,3.42
2022-11-22T00:14:16.043Z,3.41
2022-11-22T00:16:46.303Z,3.43
2022-11-22T00:19:17.881Z,3.53
2022-11-22T00:21:46.501Z,3.53
2022-11-22T00:24:15.359Z,3.66
2022-11-22T00:26:44.133Z,3.72
2022-11-22T00:29:14.515Z,3.76
2022-11-22T00:31:44.220Z,3.83
2022-11-22T00:34:12.856Z,3.80
2022-11-22T00:36:41.526Z,3.82
2022-11-22T00:39:10.072Z,3.83
2022-11-22T00:41:38.605Z,3.75
2022-11-22T00:44:07.294Z,3.75
2022-11-22T00:46:35.915Z,3.76
2022-11-22T00:49:04.672Z,3.60
2022-11-22T00:51:33.631Z,3.60
2022-11-22T00:54:02.274Z,3.62
2022-11-22T00:56:32.094Z,3.58
2022-11-22T00:59:00.848Z,3.53
2022-11-22T01:01:29.610Z,3.31
2022-11-22T01:03:58.375Z,3.31
2022-11-22T01:06:26.994Z,3.42
2022-11-22T01:08:56.860Z,3.35
2022-11-22T01:11:25.534Z,3.32
2022-11-22T01:13:54.238Z,3.29
2022-11-22T01:16:23.108Z,3.33
2022-11-22T01:18:51.761Z,3.30
2022-11-22T01:21:22.007Z,3.30
2022-11-22T01:23:50.630Z,3.38
2022-11-22T01:26:19.238Z,3.38
2022-11-22T01:28:47.801Z,3.36
2022-11-22T01:31:16.477Z,3.32
2022-11-22T01:33:45.311Z,3.40
2022-11-22T01:36:13.960Z,3.40
2022-11-22T01:38:42.621Z,3.37
2022-11-22T01:41:11.450Z,3.26
2022-11-22T01:43:40.225Z,3.26
2022-11-22T01:46:17.454Z,3.18
2022-11-22T01:48:49.506Z,3.17
2022-11-22T01:51:21.075Z,3.08
2022-11-22T01:53:50.512Z,3.00
2022-11-22T01:56:21.165Z,2.93
2022-11-22T01:58:52.783Z,2.93
2022-11-22T02:01:23.132Z,2.90
2022-11-22T02:03:53.820Z,2.91
2022-11-22T02:06:24.332Z,2.91
2022-11-22T02:08:57.200Z,2.85
2022-11-22T02:11:33.644Z,2.85
2022-11-22T02:13:59.955Z,2.88
2022-11-22T02:16:28.672Z,2.76
2022-11-22T02:18:57.193Z,2.77
2022-11-22T02:21:26.731Z,2.90
2022-11-22T02:23:58.266Z,2.87
2022-11-22T02:26:28.914Z,2.93
2022-11-22T02:29:00.813Z,3.13
2022-11-22T02:31:47.627Z,3.16
2022-11-22T02:34:18.760Z,3.06
2022-11-22T02:36:55.364Z,3.06
2022-11-22T02:39:28.966Z,2.92
2022-11-22T02:41:58.781Z,2.91
2022-11-22T02:44:28.083Z,2.80
2022-11-22T02:46:58.527Z,2.70
2022-11-22T02:49:27.385Z,2.63
2022-11-22T02:51:57.382Z,2.51
2022-11-22T02:54:35.827Z,2.38
2022-11-22T02:57:09.469Z,2.38
2022-11-22T02:59:38.454Z,2.36
2022-11-22T03:02:07.120Z,2.34
2022-11-22T03:04:35.842Z,2.23
2022-11-22T03:07:04.619Z,2.24
2022-11-22T03:09:33.695Z,2.15
2022-11-22T03:12:02.534Z,2.15
2022-11-22T03:14:36.934Z,2.08
2022-11-22T03:17:07.560Z,2.05
2022-11-22T03:19:43.569Z,2.09
2022-11-22T03:22:12.271Z,2.03
2022-11-22T03:24:46.935Z,2.03
2022-11-22T03:27:18.919Z,1.95
2022-11-22T03:29:48.368Z,1.88
2022-11-22T03:32:17.057Z,1.83
2022-11-22T03:34:46.461Z,1.74
2022-11-22T03:37:18.249Z,1.75
2022-11-22T03:39:46.901Z,1.67
2022-11-22T03:42:20.992Z,1.57
2022-11-22T03:44:45.814Z,1.58
2022-11-22T03:47:14.394Z,1.51
2022-11-22T03:49:43.386Z,1.53
2022-11-22T03:52:12.290Z,1.53
2022-11-22T03:54:41.016Z,1.52
2022-11-22T03:57:09.633Z,1.56
2022-11-22T03:59:38.122Z,1.49
2022-11-22T04:02:06.902Z,1.54
2022-11-22T04:04:35.481Z,1.47
2022-11-22T04:07:05.660Z,1.49
2022-11-22T04:09:34.568Z,1.44
2022-11-22T04:12:03.414Z,1.40
2022-11-22T04:14:50.107Z,1.43
2022-11-22T04:17:20.377Z,1.34
2022-11-22T04:19:55.737Z,1.40
2022-11-22T04:22:24.304Z,1.34
2022-11-22T04:25:10.729Z,1.24
2022-11-22T04:27:39.252Z,1.11
2022-11-22T04:30:28.218Z,1.04
2022-11-22T04:32:56.783Z,1.08
2022-11-22T04:35:25.418Z,1.02
2022-11-22T04:37:54.072Z,1.07
2022-11-22T04:40:22.677Z,1.12
2022-11-22T04:43:08.995Z,1.13
2022-11-22T04:45:37.799Z,1.11
2022-11-22T04:48:06.808Z,1.08
2022-11-22T04:50:53.526Z,1.05
2022-11-22T04:53:22.068Z,0.96
2022-11-22T04:55:50.826Z,1.00
2022-11-22T04:58:20.377Z,1.00
2022-11-22T05:00:49.953Z,0.93
2022-11-22T05:03:19.048Z,0.90
2022-11-22T05:05:47.943Z,0.93
2022-11-22T05:08:16.828Z,1.01
2022-11-22T05:10:57.590Z,1.07
2022-11-22T05:13:34.788Z,1.03
2022-11-22T05:16:05.367Z,0.95
2022-11-22T05:18:34.240Z,0.89
2022-11-22T05:21:07.295Z,1.02
2022-11-22T05:23:53.894Z,1.01
2022-11-22T05:26:30.921Z,1.05
2022-11-22T05:29:00.040Z,1.04
2022-11-22T05:31:29.132Z,1.11
2022-11-22T05:33:58.854Z,1.06
2022-11-22T05:36:27.656Z,1.12
2022-11-22T05:38:56.393Z,1.13
2022-11-22T05:41:25.022Z,1.11
2022-11-22T05:43:56.859Z,1.15
2022-11-22T05:46:28.473Z,1.26
2022-11-22T05:48:59.040Z,1.36
2022-11-22T05:51:34.531Z,1.45
2022-11-22T05:54:01.299Z,1.37
2022-11-22T05:56:30.231Z,1.21
2022-11-22T05:58:58.814Z,0.70
2022-11-22T06:01:30.365Z,1.23
2022-11-22T06:03:59.593Z,1.31
2022-11-22T06:06:28.337Z,1.36
2022-11-22T06:08:57.034Z,1.42
2022-11-22T06:11:27.867Z,1.32
2022-11-22T06:13:58.973Z,1.58
2022-11-22T06:16:28.679Z,1.68
2022-11-22T06:19:00.423Z,1.71
2022-11-22T06:21:29.010Z,1.71
2022-11-22T06:23:58.095Z,1.72
2022-11-22T06:26:27.601Z,1.75
2022-11-22T06:28:56.699Z,1.78
2022-11-22T06:31:27.877Z,1.89
2022-11-22T06:33:59.883Z,2.00
2022-11-22T06:36:30.910Z,2.45
2022-11-22T06:38:59.785Z,2.45
2022-11-22T06:41:31.597Z,2.55
2022-11-22T06:44:00.253Z,2.71
2022-11-22T06:46:30.524Z,2.71
2022-11-22T06:48:59.137Z,2.83
2022-11-22T06:51:30.047Z,2.83
2022-11-22T06:53:59.825Z,3.07
2022-11-22T06:56:31.378Z,3.07
2022-11-22T06:59:04.007Z,3.20
2022-11-22T07:01:34.057Z,3.27
2022-11-22T07:04:04.412Z,3.25
2022-11-22T07:06:35.553Z,3.29
2022-11-22T07:09:07.553Z,3.29
2022-11-22T07:11:37.032Z,3.41
2022-11-22T07:14:08.656Z,3.49
2022-11-22T07:16:38.360Z,3.58
2022-11-22T07:19:08.275Z,3.75
2022-11-22T07:21:37.683Z,3.91
2022-11-22T07:24:08.030Z,3.78
2022-11-22T07:26:36.557Z,3.68
2022-11-22T07:29:05.829Z,3.84
2022-11-22T07:31:35.065Z,4.08
2022-11-22T07:34:03.738Z,4.28
2022-11-22T07:36:32.408Z,4.37
2022-11-22T07:39:00.963Z,4.42
2022-11-22T07:41:29.912Z,4.50
2022-11-22T07:43:58.493Z,4.54
2022-11-22T07:46:30.483Z,4.83
2022-11-22T07:49:00.033Z,4.93
2022-11-22T07:51:29.020Z,5.02
2022-11-22T07:53:58.642Z,5.13
2022-11-22T07:56:27.408Z,5.33
2022-11-22T07:58:56.568Z,5.41
2022-11-22T08:01:25.316Z,5.62
2022-11-22T08:03:53.794Z,5.73
2022-11-22T08:06:22.489Z,6.14
2022-11-22T08:08:55.763Z,6.22
2022-11-22T08:11:23.004Z,6.20
2022-11-22T08:13:52.944Z,6.31
2022-11-22T08:16:21.622Z,5.72
2022-11-22T08:18:51.079Z,5.58
2022-11-22T08:21:20.455Z,5.53
2022-11-22T08:23:50.004Z,5.35
2022-11-22T08:26:21.042Z,5.17
2022-11-22T08:28:49.949Z,4.99
2022-11-22T08:31:20.222Z,5.05
2022-11-22T08:33:49.299Z,5.06
2022-11-22T08:36:18.369Z,5.46
2022-11-22T08:38:47.085Z,5.63
2022-11-22T08:41:15.870Z,6.01
2022-11-22T08:43:46.114Z,5.68
2022-11-22T08:46:14.603Z,6.27
2022-11-22T08:48:45.286Z,6.28
2022-11-22T08:51:15.267Z,6.35
2022-11-22T08:53:47.723Z,6.07
2022-11-22T08:56:17.479Z,6.53
2022-11-22T08:58:46.184Z,6.55
2022-11-22T09:01:17.524Z,6.28
2022-11-22T09:03:46.633Z,6.73
2022-11-22T09:09:02.764Z,7.12
2022-11-22T09:11:21.337Z,7.24
2022-11-22T09:13:50.005Z,7.36
2022-11-22T09:16:21.594Z,7.32
2022-11-22T09:18:50.981Z,7.57
2022-11-22T09:21:20.456Z,7.32
2022-11-22T09:23:53.819Z,7.74
2022-11-22T09:26:25.346Z,7.33
2022-11-22T09:28:55.446Z,7.54
2022-11-22T09:31:25.940Z,8.07
2022-11-22T09:33:54.456Z,7.82
2022-11-22T09:36:27.127Z,7.36
2022-11-22T09:38:57.093Z,7.36
2022-11-22T09:41:50.232Z,7.38
2022-11-22T09:44:33.686Z,7.58
2022-11-22T09:47:11.150Z,7.66
2022-11-22T09:49:48.617Z,7.71
2022-11-22T09:52:20.339Z,8.09
2022-11-22T09:54:54.908Z,8.13
2022-11-22T09:57:26.464Z,8.19
2022-11-22T10:00:06.064Z,8.43
2022-11-22T10:03:00.253Z,8.60
2022-11-22T10:05:22.670Z,8.32
2022-11-22T10:08:00.213Z,8.02
2022-11-22T10:10:31.816Z,8.03
2022-11-22T10:13:12.019Z,8.23
2022-11-22T10:15:49.643Z,8.29
2022-11-22T10:18:42.365Z,8.39
2022-11-22T10:21:13.900Z,8.49
2022-11-22T10:23:44.175Z,8.47
2022-11-22T10:26:35.770Z,8.89
2022-11-22T10:29:16.816Z,8.69
2022-11-22T10:31:50.931Z,8.37
2022-11-22T10:34:28.301Z,8.20
2022-11-22T10:37:19.613Z,8.73
2022-11-22T10:40:06.422Z,8.84
2022-11-22T10:42:52.616Z,8.69
2022-11-22T10:45:36.457Z,8.32
2022-11-22T10:48:23.246Z,8.47
2022-11-22T10:51:16.104Z,8.32
2022-11-22T10:54:10.394Z,8.40
2022-11-22T11:06:56.532Z,8.68
2022-11-22T11:11:53.728Z,8.66
2022-11-22T11:14:37.462Z,8.69
2022-11-22T11:17:07.778Z,7.90
2022-11-22T11:19:43.024Z,7.64
2022-11-22T11:22:50.322Z,8.01
2022-11-22T11:24:56.484Z,8.31
2022-11-22T11:27:28.070Z,8.28
2022-11-22T11:30:04.963Z,8.46
2022-11-22T11:32:36.560Z,7.95
2022-11-22T11:35:09.506Z,7.98
2022-11-22T11:37:39.722Z,7.98
2022-11-22T11:40:26.546Z,8.03
2022-11-22T11:43:16.904Z,8.01
2022-11-22T11:45:47.386Z,7.65
2022-11-22T11:48:40.663Z,7.43
2022-11-22T11:51:30.319Z,7.25
2022-11-22T11:54:12.644Z,7.77
2022-11-22T11:56:44.838Z,8.05
2022-11-22T11:59:22.014Z,8.01
2022-11-22T12:02:14.938Z,8.02
2022-11-22T12:05:01.737Z,8.03
2022-11-22T12:07:39.149Z,8.19
2022-11-22T12:10:30.002Z,8.17
2022-11-22T12:13:16.752Z,8.24
2022-11-22T12:15:51.752Z,8.30
2022-11-22T12:18:39.967Z,8.29
2022-11-22T12:21:26.437Z,8.12
2022-11-22T12:24:43.159Z,8.29
2022-11-22T12:26:46.750Z,8.19
2022-11-22T12:29:16.696Z,8.26
2022-11-22T12:31:54.265Z,8.18
2022-11-22T12:34:28.968Z,8.14
2022-11-22T12:37:21.776Z,7.77
2022-11-22T12:39:52.431Z,7.87
2022-11-22T12:42:27.193Z,7.87
2022-11-22T12:45:07.779Z,7.56
2022-11-22T12:47:42.906Z,7.16
2022-11-22T12:50:17.513Z,7.13
2022-11-22T12:53:01.714Z,7.37
2022-11-22T12:55:33.259Z,7.39
2022-11-22T12:58:22.957Z,7.60
2022-11-22T13:01:11.491Z,7.72
2022-11-22T13:04:04.165Z,7.72
2022-11-22T13:07:06.304Z,7.61
2022-11-22T13:09:37.895Z,7.59
2022-11-22T13:12:12.270Z,7.02
2022-11-22T13:14:51.629Z,7.15
2022-11-22T13:17:21.324Z,7.12
2022-11-22T13:20:01.986Z,7.08
2022-11-22T13:22:53.067Z,7.22
2022-11-22T13:25:41.825Z,6.91
2022-11-22T13:28:22.591Z,7.24
2022-11-22T13:31:15.238Z,7.16
2022-11-22T13:34:02.372Z,7.07
2022-11-22T13:36:39.441Z,7.11
2022-11-22T13:39:23.172Z,6.72
2022-11-22T13:42:04.463Z,6.93
2022-11-22T13:44:36.640Z,7.05
2022-11-22T13:47:20.293Z,7.04
2022-11-22T13:49:49.889Z,7.12
2022-11-22T13:52:21.463Z,7.17
2022-11-22T13:55:02.128Z,7.29
2022-11-22T13:57:38.022Z,7.25
2022-11-22T14:00:19.898Z,7.48
2022-11-22T14:02:51.710Z,7.34
2022-11-22T14:05:22.888Z,7.26
2022-11-22T14:07:53.537Z,7.24
2022-11-22T14:10:54.959Z,7.30
2022-11-22T14:13:44.342Z,7.38
2022-11-22T14:16:30.779Z,7.41
2022-11-22T14:19:08.903Z,7.36
2022-11-22T14:22:09.317Z,7.50
2022-11-22T14:25:03.300Z,7.61
2022-11-22T14:27:37.555Z,7.70
2022-11-22T14:30:21.016Z,7.82
2022-11-22T14:32:52.543Z,7.74
2022-11-22T14:35:29.257Z,7.69
2022-11-22T14:38:11.910Z,7.68
2022-11-22T14:40:42.309Z,7.57
2022-11-22T14:43:19.113Z,7.19
2022-11-22T14:45:50.921Z,7.27
2022-11-22T14:48:22.254Z,7.19
2022-11-22T14:51:06.804Z,7.11
2022-11-22T14:53:41.304Z,7.00
2022-11-22T14:56:27.669Z,7.02
2022-11-22T14:59:05.227Z,6.86
2022-11-22T15:01:59.641Z,6.78
2022-11-22T15:09:09.899Z,6.71
2022-11-22T15:09:23.704Z,6.76
2022-11-22T15:10:46.895Z,6.72
2022-11-22T15:13:21.087Z,6.70
2022-11-22T15:57:32.761Z,7.12
2022-11-22T16:00:05.082Z,7.20
2022-11-22T16:02:35.729Z,7.28
2022-11-22T16:06:05.905Z,7.21
2022-11-22T16:07:46.008Z,7.17
2022-11-22T16:10:42.781Z,7.24
2022-11-22T16:13:23.222Z,7.36
2022-11-22T16:16:16.392Z,7.60
2022-11-22T16:18:46.065Z,7.62
2022-11-22T16:21:25.522Z,7.47
2022-11-22T16:23:57.465Z,7.50
2022-11-22T16:26:30.494Z,7.39
2022-11-22T16:31:54.873Z,7.34
2022-11-22T16:34:23.515Z,7.31
2022-11-22T16:36:52.330Z,7.34
2022-11-22T16:39:21.199Z,7.24
2022-11-22T16:41:50.000Z,7.17
2022-11-22T16:44:20.925Z,7.16
2022-11-22T16:46:49.504Z,7.04
2022-11-22T16:49:20.335Z,6.96
2022-11-22T16:51:50.186Z,6.92
2022-11-22T16:54:22.566Z,7.00
2022-11-22T16:56:51.516Z,6.97
2022-11-22T16:59:20.171Z,6.91
2022-11-22T17:01:49.011Z,6.95
2022-11-22T17:04:35.470Z,6.95
2022-11-22T17:06:58.794Z,7.05
2022-11-22T17:09:27.437Z,7.10
2022-11-22T17:11:56.366Z,7.14
2022-11-22T17:14:24.949Z,6.92
2022-11-22T17:16:53.571Z,6.92
2022-11-22T17:19:45.976Z,6.82
2022-11-22T17:21:52.551Z,6.79
2022-11-22T17:24:24.040Z,6.79
2022-11-22T17:26:52.633Z,6.77
2022-11-22T17:31:51.468Z,6.83
2022-11-22T17:34:20.054Z,6.89
2022-11-22T17:36:48.712Z,6.83
2022-11-22T17:39:17.334Z,6.83
2022-11-22T17:41:48.907Z,6.84
2022-11-22T17:44:19.066Z,6.78
2022-11-22T17:46:47.646Z,6.80
2022-11-22T17:49:16.681Z,6.73
2022-11-22T17:51:46.829Z,6.74
2022-11-22T17:54:15.816Z,6.70
2022-11-22T17:56:47.488Z,6.74
2022-11-22T17:59:18.174Z,6.68
2022-11-22T18:01:46.464Z,6.65
2022-11-22T18:04:16.840Z,6.63
2022-11-22T18:06:45.467Z,6.61
2022-11-22T18:09:13.962Z,6.58
2022-11-22T18:11:45.884Z,6.56
2022-11-22T18:14:14.844Z,6.57
2022-11-22T18:16:44.711Z,6.57
2022-11-22T18:19:13.359Z,6.70
2022-11-22T18:21:42.043Z,6.64
2022-11-22T18:24:10.801Z,6.58
2022-11-22T18:26:40.815Z,6.60
2022-11-22T18:29:41.201Z,6.55
2022-11-22T18:31:51.839Z,6.45
2022-11-22T18:34:11.223Z,6.49
2022-11-22T18:37:01.381Z,6.44
2022-11-22T18:39:11.616Z,6.45
2022-11-22T18:41:40.249Z,6.46
2022-11-22T18:44:10.081Z,6.41
2022-11-22T18:46:39.842Z,6.55
2022-11-22T18:49:10.384Z,6.70
2022-11-22T18:51:40.742Z,6.54
2022-11-22T18:54:14.665Z,6.55
2022-11-22T18:56:43.274Z,6.72
2022-11-22T18:59:13.127Z,6.72
2022-11-22T19:01:42.297Z,6.53
2022-11-22T19:04:17.565Z,6.49
2022-11-22T19:06:47.813Z,6.50
2022-11-22T19:09:17.923Z,6.64
2022-11-22T19:11:52.597Z,6.76
2022-11-22T19:14:21.483Z,6.69
2022-11-22T19:16:50.243Z,6.84
2022-11-22T19:19:19.011Z,6.80
2022-11-22T19:21:56.634Z,6.90
2022-11-22T19:24:29.825Z,7.01
2022-11-22T19:26:58.599Z,6.85
2022-11-22T19:29:27.326Z,6.85
2022-11-22T19:31:56.111Z,6.95
2022-11-22T19:34:28.649Z,7.17
2022-11-22T19:37:00.544Z,7.20
2022-11-22T19:39:32.769Z,7.33
2022-11-22T19:42:04.703Z,7.53
2022-11-22T19:44:33.229Z,7.49
2022-11-22T19:47:01.843Z,7.40
2022-11-22T19:49:30.654Z,7.44
2022-11-22T19:51:59.391Z,7.31
2022-11-22T19:54:28.057Z,7.29
2022-11-22T19:56:56.782Z,7.14
2022-11-22T19:59:25.362Z,7.29
2022-11-22T20:01:54.139Z,7.27
2022-11-22T20:04:22.652Z,7.26
2022-11-22T20:06:51.281Z,7.34
2022-11-22T20:09:20.004Z,7.42
2022-11-22T20:11:48.770Z,7.42
2022-11-22T20:14:17.353Z,7.42
2022-11-22T20:16:45.914Z,7.45
2022-11-22T20:19:15.733Z,7.27
2022-11-22T20:21:44.876Z,7.19
2022-11-22T20:24:13.511Z,7.17
2022-11-22T20:26:45.102Z,7.02
2022-11-22T20:29:15.192Z,6.81
2022-11-22T20:31:43.896Z,6.81
2022-11-22T20:34:14.731Z,6.71
2022-11-22T20:36:44.871Z,6.83
2022-11-22T20:39:13.574Z,6.68
2022-11-22T20:41:42.461Z,6.70
2022-11-22T20:44:15.085Z,6.71
2022-11-22T20:46:44.610Z,6.81
2022-11-22T20:49:15.441Z,6.79
2022-11-22T20:51:44.257Z,6.75
2022-11-22T20:54:12.918Z,6.82
2022-11-22T20:56:41.629Z,6.80
2022-11-22T20:59:10.401Z,6.84
2022-11-22T21:01:39.308Z,6.63
2022-11-22T21:04:08.112Z,6.45
2022-11-22T21:06:36.831Z,6.49
2022-11-22T21:09:05.582Z,6.57
2022-11-22T21:11:35.061Z,6.55
2022-11-22T21:14:05.443Z,6.48
2022-11-22T21:16:34.081Z,6.40
2022-11-22T21:19:05.830Z,6.50
2022-11-22T21:21:36.560Z,6.63
2022-11-22T21:24:07.024Z,6.67
2022-11-22T21:26:38.758Z,6.68
2022-11-22T21:29:15.995Z,6.71
2022-11-22T21:31:42.190Z,6.71
2022-11-22T21:34:10.785Z,6.58
2022-11-22T21:36:39.321Z,6.44
2022-11-22T21:39:15.274Z,6.44
2022-11-22T21:41:44.047Z,5.92
2022-11-22T21:44:12.832Z,6.50
2022-11-22T21:46:41.434Z,6.47
2022-11-22T21:49:10.013Z,6.48
2022-11-22T21:51:38.592Z,6.69
2022-11-22T21:54:50.320Z,6.85
2022-11-22T22:06:22.024Z,6.71
2022-11-22T22:08:53.875Z,6.85
2022-11-22T22:11:24.754Z,7.12
2022-11-22T22:13:59.335Z,7.06
2022-11-22T22:16:28.164Z,7.07
2022-11-22T22:18:56.791Z,7.15
2022-11-22T22:21:25.326Z,7.13
2022-11-22T22:23:57.390Z,7.00
2022-11-22T22:26:26.053Z,6.82
2022-11-22T22:28:58.203Z,6.76
2022-11-22T22:31:26.998Z,6.69
2022-11-22T22:34:00.028Z,6.77
2022-11-22T22:36:31.675Z,6.80
2022-11-22T22:39:00.329Z,6.85
2022-11-22T22:44:29.096Z,6.91
2022-11-22T22:46:57.719Z,6.76
2022-11-22T22:49:28.010Z,6.67
2022-11-22T22:51:56.650Z,6.78
2022-11-22T22:54:25.519Z,6.66
2022-11-22T22:56:54.125Z,6.64
2022-11-22T22:59:22.812Z,6.57
2022-11-22T23:01:51.448Z,6.63
2022-11-22T23:04:30.758Z,6.46
2022-11-22T23:06:59.316Z,6.56
2022-11-22T23:09:28.065Z,6.51
2022-11-22T23:12:13.605Z,6.50
2022-11-22T23:14:42.417Z,6.56
2022-11-22T23:17:14.498Z,6.55
2022-11-22T23:19:43.095Z,6.59
2022-11-22T23:22:11.630Z,6.72
2022-11-22T23:24:40.163Z,6.66
2022-11-22T23:27:08.842Z,6.68
2022-11-22T23:29:37.504Z,6.66
2022-11-22T23:32:06.290Z,5.90
2022-11-22T23:34:35.187Z,6.41
2022-11-22T23:37:03.954Z,6.50
2022-11-22T23:39:38.678Z,6.57
2022-11-22T23:42:07.342Z,6.69
2022-11-22T23:44:36.014Z,6.71
2022-11-22T23:47:04.689Z,6.80
2022-11-22T23:49:33.735Z,6.84
2022-11-22T23:52:02.528Z,6.87
2022-11-22T23:54:31.109Z,6.87
2022-11-22T23:56:59.608Z,6.80
2022-11-22T23:59:28.328Z,6.70
